Time,TemperatureF,DewpointF,PressureIn,WindDirection,WindDirectionDegrees,WindSpeedMPH,WindSpeedGustMPH,Humidity,HourlyPrecipIn,Conditions,Clouds,dailyrainin,SoftwareType,DateUTC
2013-10-03 00:00:00,66.7,65.5,30.12,West,270,0.0,0.0,96,0.00,CLR,,0.00,WeatherDisplay:10.37,2013-10-03 04:00:00,
2013-10-03 00:01:00,66.7,65.5,30.12,West,270,0.0,0.0,96,0.00,CLR,,0.00,WeatherDisplay:10.37,2013-10-03 04:01:00,
2013-10-03 00:02:00,66.7,65.5,30.12,West,270,0.0,0.0,96,0.00,CLR,,0.00,WeatherDisplay:10.37,2013-10-03 04:02:00,
2013-10-03 00:07:00,66.7,65.5,30.11,West,270,0.0,0.0,96,0.00,CLR,,0.00,WeatherDisplay:10.37,2013-10-03 04:07:00,
2013-10-03 00:12:00,66.6,65.4,30.12,SW,225,0.0,0.0,96,0.00,CLR,,0.00,WeatherDisplay:10.37,2013-10-03 04:12:00,
2013-10-03 00:17:00,66.6,65.4,30.12,SW,225,0.0,0.0,96,0.00,CLR,,0.00,WeatherDisplay:10.37,2013-10-03 04:17:00,
2013-10-03 00:22:00,66.6,65.4,30.12,SW,225,0.0,0.0,96,0.00,CLR,,0.00,WeatherDisplay:10.37,2013-10-03 04:22:00,
2013-10-03 00:27:00,66.6,65.4,30.12,SW,225,0.0,0.0,96,0.00,CLR,,0.00,WeatherDisplay:10.37,2013-10-03 04:27:00,
2013-10-03 00:32:00,66.6,65.4,30.12,West,270,0.0,0.0,96,0.00,CLR,,0.00,WeatherDisplay:10.37,2013-10-03 04:32:00,
2013-10-03 00:37:00,66.6,65.4,30.12,West,270,0.0,0.0,96,0.00,CLR,,0.00,WeatherDisplay:10.37,2013-10-03 04:37:00,
2013-10-03 00:42:00,66.6,65.4,30.12,West,270,0.0,0.0,96,0.00,CLR,,0.00,WeatherDisplay:10.37,2013-10-03 04:42:00,
2013-10-03 00:47:00,66.6,65.4,30.12,West,270,0.0,0.0,96,0.00,CLR,,0.00,WeatherDisplay:10.37,2013-10-03 04:47:00,
2013-10-03 00:52:00,66.6,65.4,30.11,West,270,0.0,0.0,96,0.00,CLR,,0.00,WeatherDisplay:10.37,2013-10-03 04:52:00,
2013-10-03 00:57:00,66.6,65.4,30.12,West,270,0.0,0.0,96,0.00,CLR,,0.00,WeatherDisplay:10.37,2013-10-03 04:57:00,
2013-10-03 01:02:00,66.4,65.2,30.12,West,270,0.0,0.0,96,0.00,CLR,,0.00,WeatherDisplay:10.37,2013-10-03 05:02:00,
2013-10-03 01:07:00,66.4,65.2,30.12,West,270,0.0,0.0,96,0.00,CLR,,0.00,WeatherDisplay:10.37,2013-10-03 05:07:00,
2013-10-03 01:12:00,66.4,65.2,30.12,West,270,0.0,0.0,96,0.00,CLR,,0.00,WeatherDisplay:10.37,2013-10-03 05:12:00,
2013-10-03 01:17:00,66.4,65.2,30.12,West,270,0.0,0.0,96,0.00,CLR,,0.00,WeatherDisplay:10.37,2013-10-03 05:17:00,
2013-10-03 01:22:00,66.2,65.0,30.11,West,270,0.0,0.0,96,0.00,CLR,,0.00,WeatherDisplay:10.37,2013-10-03 05:22:00,
2013-10-03 01:27:00,66.2,65.0,30.12,West,270,0.0,0.0,96,0.00,CLR,,0.00,WeatherDisplay:10.37,2013-10-03 05:27:00,
2013-10-03 01:32:00,66.2,65.0,30.12,West,270,0.0,0.0,96,0.00,CLR,,0.00,WeatherDisplay:10.37,2013-10-03 05:32:00,
2013-10-03 01:37:00,66.2,65.3,30.12,West,270,0.0,0.0,97,0.00,CLR,,0.00,WeatherDisplay:10.37,2013-10-03 05:37:00,
2013-10-03 01:42:00,66.2,65.3,30.12,West,270,0.0,0.0,97,0.00,CLR,,0.00,WeatherDisplay:10.37,2013-10-03 05:42:00,
2013-10-03 01:47:00,66.2,65.3,30.11,West,270,0.0,0.0,97,0.00,CLR,,0.00,WeatherDisplay:10.37,2013-10-03 05:47:00,
2013-10-03 01:52:00,66.2,65.6,30.12,West,270,0.0,0.0,98,0.00,CLR,,0.00,WeatherDisplay:10.37,2013-10-03 05:52:00,
2013-10-03 01:57:00,66.4,65.8,30.12,West,270,0.0,0.0,98,0.00,CLR,,0.00,WeatherDisplay:10.37,2013-10-03 05:57:00,
2013-10-03 02:02:00,66.2,65.6,30.11,West,270,0.0,0.0,98,0.00,CLR,,0.00,WeatherDisplay:10.37,2013-10-03 06:02:00,
2013-10-03 02:07:00,66.0,65.4,30.12,West,270,0.0,0.0,98,0.00,CLR,,0.00,WeatherDisplay:10.37,2013-10-03 06:07:00,
2013-10-03 02:12:00,66.0,65.4,30.12,West,270,0.0,0.0,98,0.00,CLR,,0.00,WeatherDisplay:10.37,2013-10-03 06:12:00,
2013-10-03 02:17:00,65.8,65.2,30.12,West,270,0.0,0.0,98,0.00,CLR,,0.00,WeatherDisplay:10.37,2013-10-03 06:17:00,
2013-10-03 02:22:00,65.7,65.1,30.11,West,270,0.0,0.0,98,0.00,CLR,,0.00,WeatherDisplay:10.37,2013-10-03 06:22:00,
2013-10-03 02:27:00,65.5,64.9,30.11,West,270,0.0,0.0,98,0.00,CLR,,0.00,WeatherDisplay:10.37,2013-10-03 06:27:00,
2013-10-03 02:33:00,65.5,64.9,30.11,West,270,0.0,0.0,98,0.00,CLR,,0.00,WeatherDisplay:10.37,2013-10-03 06:33:00,
2013-10-03 02:38:00,65.5,64.9,30.10,West,270,0.0,0.0,98,0.00,CLR,,0.00,WeatherDisplay:10.37,2013-10-03 06:38:00,
2013-10-03 02:43:00,65.5,64.9,30.10,West,270,0.0,0.0,98,0.00,CLR,,0.00,WeatherDisplay:10.37,2013-10-03 06:43:00,
2013-10-03 02:48:00,65.5,64.9,30.10,West,270,0.0,0.0,98,0.00,CLR,,0.00,WeatherDisplay:10.37,2013-10-03 06:48:00,
2013-10-03 02:53:00,65.5,64.9,30.10,West,270,0.0,0.0,98,0.00,CLR,,0.00,WeatherDisplay:10.37,2013-10-03 06:53:00,
2013-10-03 02:58:00,65.5,64.9,30.10,West,270,0.0,0.0,98,0.00,CLR,,0.00,WeatherDisplay:10.37,2013-10-03 06:58:00,
2013-10-03 03:03:00,65.5,64.9,30.12,West,270,0.0,0.0,98,0.00,CLR,,0.00,WeatherDisplay:10.37,2013-10-03 07:03:00,
2013-10-03 03:08:00,65.5,64.9,30.10,NW,315,0.0,0.0,98,0.00,CLR,,0.00,WeatherDisplay:10.37,2013-10-03 07:08:00,
2013-10-03 03:13:00,65.3,64.7,30.10,NW,315,0.0,0.0,98,0.00,CLR,,0.00,WeatherDisplay:10.37,2013-10-03 07:13:00,
2013-10-03 03:18:00,65.1,64.5,30.10,NW,315,0.0,0.0,98,0.00,CLR,,0.00,WeatherDisplay:10.37,2013-10-03 07:18:00,
2013-10-03 03:23:00,65.1,64.5,30.11,NNW,338,4.7,4.7,98,0.00,CLR,,0.00,WeatherDisplay:10.37,2013-10-03 07:23:00,
2013-10-03 03:28:00,65.5,64.9,30.10,NW,315,3.5,3.5,98,0.00,CLR,,0.00,WeatherDisplay:10.37,2013-10-03 07:28:00,
2013-10-03 03:33:00,65.5,64.9,30.10,WNW,292,2.3,2.3,98,0.00,CLR,,0.00,WeatherDisplay:10.37,2013-10-03 07:33:00,
2013-10-03 03:38:00,65.5,64.9,30.10,WNW,292,0.0,0.0,98,0.00,CLR,,0.00,WeatherDisplay:10.37,2013-10-03 07:38:00,
2013-10-03 03:43:00,65.3,64.7,30.10,WNW,292,0.0,0.0,98,0.00,CLR,,0.00,WeatherDisplay:10.37,2013-10-03 07:43:00,
2013-10-03 03:48:00,65.1,64.5,30.10,WNW,292,0.0,0.0,98,0.00,CLR,,0.00,WeatherDisplay:10.37,2013-10-03 07:48:00,
2013-10-03 03:53:00,64.9,64.3,30.10,WNW,292,0.0,0.0,98,0.00,CLR,,0.00,WeatherDisplay:10.37,2013-10-03 07:53:00,
2013-10-03 03:58:00,64.9,64.3,30.10,WNW,292,0.0,0.0,98,0.00,CLR,,0.00,WeatherDisplay:10.37,2013-10-03 07:58:00,
2013-10-03 04:03:00,65.5,64.9,30.10,NW,315,3.8,3.8,98,0.00,CLR,,0.00,WeatherDisplay:10.37,2013-10-03 08:03:00,
2013-10-03 04:08:00,65.7,65.1,30.10,NW,315,5.8,5.8,98,0.00,CLR,,0.00,WeatherDisplay:10.37,2013-10-03 08:08:00,
2013-10-03 04:13:00,65.8,65.2,30.10,NNW,338,3.5,3.5,98,0.00,CLR,,0.00,WeatherDisplay:10.37,2013-10-03 08:13:00,
2013-10-03 04:18:00,65.7,65.1,30.10,NNW,338,3.5,3.5,98,0.00,CLR,,0.00,WeatherDisplay:10.37,2013-10-03 08:18:00,
2013-10-03 04:23:00,65.7,65.1,30.10,NW,315,0.0,0.0,98,0.00,CLR,,0.00,WeatherDisplay:10.37,2013-10-03 08:23:00,
2013-10-03 04:28:00,65.5,64.9,30.10,NW,315,3.5,3.5,98,0.00,CLR,,0.00,WeatherDisplay:10.37,2013-10-03 08:28:00,
2013-10-03 04:33:00,65.5,64.9,30.10,NW,315,0.0,0.0,98,0.00,CLR,,0.00,WeatherDisplay:10.37,2013-10-03 08:33:00,
2013-10-03 04:38:00,65.5,64.9,30.10,NW,315,0.0,0.0,98,0.00,CLR,,0.00,WeatherDisplay:10.37,2013-10-03 08:38:00,
2013-10-03 04:43:00,65.3,64.7,30.10,NW,315,0.0,0.0,98,0.00,CLR,,0.00,WeatherDisplay:10.37,2013-10-03 08:43:00,
2013-10-03 04:48:00,65.1,64.5,30.10,NW,315,0.0,0.0,98,0.00,CLR,,0.00,WeatherDisplay:10.37,2013-10-03 08:48:00,
2013-10-03 04:53:00,64.8,64.2,30.10,NW,315,0.0,0.0,98,0.00,CLR,,0.00,WeatherDisplay:10.37,2013-10-03 08:53:00,
2013-10-03 04:58:00,64.6,64.0,30.10,WNW,292,0.0,0.0,98,0.00,CLR,,0.00,WeatherDisplay:10.37,2013-10-03 08:58:00,
2013-10-03 05:03:00,64.4,63.8,30.10,NNW,338,0.0,0.0,98,0.00,CLR,,0.00,WeatherDisplay:10.37,2013-10-03 09:03:00,
2013-10-03 05:08:00,64.4,63.8,30.10,WNW,292,0.0,0.0,98,0.00,CLR,,0.00,WeatherDisplay:10.37,2013-10-03 09:08:00,
2013-10-03 05:13:00,64.2,63.6,30.11,WNW,292,0.0,0.0,98,0.00,CLR,,0.00,WeatherDisplay:10.37,2013-10-03 09:13:00,
2013-10-03 05:18:00,64.0,63.4,30.11,WNW,292,0.0,0.0,98,0.00,CLR,,0.00,WeatherDisplay:10.37,2013-10-03 09:18:00,
2013-10-03 05:23:00,63.9,63.3,30.11,WNW,292,0.0,0.0,98,0.00,CLR,,0.00,WeatherDisplay:10.37,2013-10-03 09:23:00,
2013-10-03 05:28:00,63.7,63.1,30.11,WNW,292,0.0,0.0,98,0.00,CLR,,0.00,WeatherDisplay:10.37,2013-10-03 09:28:00,
2013-10-03 05:33:00,63.7,63.1,30.11,WNW,292,0.0,0.0,98,0.00,CLR,,0.00,WeatherDisplay:10.37,2013-10-03 09:33:00,
2013-10-03 05:38:00,63.5,62.9,30.11,WNW,292,0.0,0.0,98,0.00,CLR,,0.00,WeatherDisplay:10.37,2013-10-03 09:38:00,
2013-10-03 05:43:00,63.3,62.7,30.10,WNW,292,0.0,0.0,98,0.00,CLR,,0.00,WeatherDisplay:10.37,2013-10-03 09:43:00,
2013-10-03 05:48:00,63.3,62.7,30.10,WNW,292,0.0,0.0,98,0.00,CLR,,0.00,WeatherDisplay:10.37,2013-10-03 09:48:00,
2013-10-03 05:53:00,63.1,62.5,30.10,WNW,292,0.0,0.0,98,0.00,CLR,,0.00,WeatherDisplay:10.37,2013-10-03 09:53:00,
2013-10-03 05:58:00,63.1,62.5,30.11,WNW,292,0.0,0.0,98,0.00,CLR,,0.00,WeatherDisplay:10.37,2013-10-03 09:58:00,
2013-10-03 06:03:00,63.1,62.5,30.11,WNW,292,0.0,0.0,98,0.00,CLR,,0.00,WeatherDisplay:10.37,2013-10-03 10:03:00,
2013-10-03 06:08:00,63.1,62.5,30.11,WNW,292,0.0,0.0,98,0.00,CLR,,0.00,WeatherDisplay:10.37,2013-10-03 10:08:00,
2013-10-03 06:13:00,63.0,62.4,30.11,WNW,292,0.0,0.0,98,0.00,CLR,,0.00,WeatherDisplay:10.37,2013-10-03 10:13:00,
2013-10-03 06:18:00,62.8,62.2,30.11,WNW,292,0.0,0.0,98,0.00,CLR,,0.00,WeatherDisplay:10.37,2013-10-03 10:18:00,
2013-10-03 06:23:00,62.8,62.2,30.11,NNE,22,0.0,0.0,98,0.00,CLR,,0.00,WeatherDisplay:10.37,2013-10-03 10:23:00,
2013-10-03 06:28:00,62.8,62.2,30.11,West,270,0.0,0.0,98,0.00,CLR,,0.00,WeatherDisplay:10.37,2013-10-03 10:28:00,
2013-10-03 06:33:00,62.6,62.0,30.11,NNW,338,0.0,0.0,98,0.00,CLR,,0.00,WeatherDisplay:10.37,2013-10-03 10:33:00,
2013-10-03 06:38:00,62.6,62.0,30.11,NNW,338,0.0,0.0,98,0.00,CLR,,0.00,WeatherDisplay:10.37,2013-10-03 10:38:00,
2013-10-03 06:43:00,62.6,62.0,30.11,NNW,338,0.0,0.0,98,0.00,CLR,,0.00,WeatherDisplay:10.37,2013-10-03 10:43:00,
2013-10-03 06:48:00,62.6,62.0,30.11,NNW,338,0.0,0.0,98,0.00,CLR,,0.00,WeatherDisplay:10.37,2013-10-03 10:48:00,
2013-10-03 06:53:00,62.4,61.8,30.11,NNW,338,0.0,0.0,98,0.00,CLR,,0.00,WeatherDisplay:10.37,2013-10-03 10:53:00,
2013-10-03 06:58:00,62.4,61.8,30.11,NNW,338,0.0,0.0,98,0.00,CLR,,0.00,WeatherDisplay:10.37,2013-10-03 10:58:00,
2013-10-03 07:03:00,62.4,61.8,30.11,NNW,338,0.0,0.0,98,0.00,CLR,,0.00,WeatherDisplay:10.37,2013-10-03 11:03:00,
2013-10-03 07:08:00,62.4,61.8,30.11,NNW,338,0.0,0.0,98,0.00,CLR,,0.00,WeatherDisplay:10.37,2013-10-03 11:08:00,
2013-10-03 07:13:00,62.8,62.2,30.11,NW,315,3.8,3.8,98,0.00,CLR,,0.00,WeatherDisplay:10.37,2013-10-03 11:13:00,
2013-10-03 07:18:00,63.3,62.7,30.11,NNW,338,3.5,3.5,98,0.00,CLR,,0.00,WeatherDisplay:10.37,2013-10-03 11:18:00,
2013-10-03 07:23:00,63.3,62.7,30.11,NNW,338,0.0,0.0,98,0.00,CLR,,0.00,WeatherDisplay:10.37,2013-10-03 11:23:00,
2013-10-03 07:28:00,63.3,62.7,30.12,NW,315,0.0,0.0,98,0.00,CLR,,0.00,WeatherDisplay:10.37,2013-10-03 11:28:00,
2013-10-03 07:33:00,63.5,62.9,30.12,NW,315,0.0,0.0,98,0.00,CLR,,0.00,WeatherDisplay:10.37,2013-10-03 11:33:00,
2013-10-03 07:38:00,63.5,62.9,30.12,NW,315,0.0,0.0,98,0.00,CLR,,0.00,WeatherDisplay:10.37,2013-10-03 11:38:00,
2013-10-03 07:43:00,63.5,62.9,30.12,NNW,338,0.0,0.0,98,0.00,CLR,,0.00,WeatherDisplay:10.37,2013-10-03 11:43:00,
2013-10-03 07:48:00,63.5,62.9,30.12,NNW,338,0.0,0.0,98,0.00,CLR,,0.00,WeatherDisplay:10.37,2013-10-03 11:48:00,
2013-10-03 07:54:00,63.7,63.1,30.12,NNW,338,0.0,0.0,98,0.00,CLR,,0.00,WeatherDisplay:10.37,2013-10-03 11:54:00,
2013-10-03 07:59:00,64.2,63.6,30.12,NNW,338,0.0,0.0,98,0.00,CLR,,0.00,WeatherDisplay:10.37,2013-10-03 11:59:00,
2013-10-03 08:04:00,64.9,64.3,30.13,NNW,338,4.7,4.7,98,0.00,CLR,,0.00,WeatherDisplay:10.37,2013-10-03 12:04:00,
2013-10-03 08:09:00,65.3,64.7,30.13,NW,315,6.9,6.9,98,0.00,CLR,,0.00,WeatherDisplay:10.37,2013-10-03 12:09:00,
2013-10-03 08:14:00,65.7,65.1,30.13,NNW,338,6.9,6.9,98,0.00,CLR,,0.00,WeatherDisplay:10.37,2013-10-03 12:14:00,
2013-10-03 08:19:00,65.8,65.2,30.13,NNW,338,8.3,8.3,98,0.00,CLR,,0.00,WeatherDisplay:10.37,2013-10-03 12:19:00,
2013-10-03 08:24:00,66.2,65.6,30.13,NNE,22,8.3,8.3,98,0.00,CLR,,0.00,WeatherDisplay:10.37,2013-10-03 12:24:00,
2013-10-03 08:29:00,66.7,65.5,30.14,NNW,338,10.4,10.4,96,0.00,CLR,,0.00,WeatherDisplay:10.37,2013-10-03 12:29:00,
2013-10-03 08:34:00,67.8,65.4,30.14,NW,315,8.1,8.1,92,0.00,CLR,,0.00,WeatherDisplay:10.37,2013-10-03 12:34:00,
2013-10-03 08:39:00,68.5,65.8,30.14,NW,315,6.9,6.9,91,0.00,CLR,,0.00,WeatherDisplay:10.37,2013-10-03 12:39:00,
2013-10-03 08:44:00,69.6,66.2,30.14,NNW,338,6.9,6.9,89,0.00,CLR,,0.00,WeatherDisplay:10.37,2013-10-03 12:44:00,
2013-10-03 08:49:00,69.8,66.1,30.13,NNW,338,6.9,6.9,88,0.00,CLR,,0.00,WeatherDisplay:10.37,2013-10-03 12:49:00,
2013-10-03 08:54:00,70.0,66.0,30.13,NNW,338,11.5,11.5,87,0.00,CLR,,0.00,WeatherDisplay:10.37,2013-10-03 12:54:00,
2013-10-03 08:59:00,70.9,66.2,30.13,NW,315,10.1,10.1,85,0.00,CLR,,0.00,WeatherDisplay:10.37,2013-10-03 12:59:00,
2013-10-03 09:04:00,70.9,66.2,30.13,NNW,338,11.5,11.5,85,0.00,CLR,,0.00,WeatherDisplay:10.37,2013-10-03 13:04:00,
2013-10-03 09:09:00,71.2,66.5,30.13,NW,315,9.2,9.2,85,0.00,CLR,,0.00,WeatherDisplay:10.37,2013-10-03 13:09:00,
2013-10-03 09:14:00,71.4,66.7,30.15,WNW,292,6.9,6.9,85,0.00,CLR,,0.00,WeatherDisplay:10.37,2013-10-03 13:14:00,
2013-10-03 09:19:00,71.8,66.7,30.15,WNW,292,4.6,4.6,84,0.00,CLR,,0.00,WeatherDisplay:10.37,2013-10-03 13:19:00,
2013-10-03 09:24:00,72.5,67.0,30.15,WNW,292,6.9,6.9,83,0.00,CLR,,0.00,WeatherDisplay:10.37,2013-10-03 13:24:00,
2013-10-03 09:29:00,73.2,68.1,30.15,North,360,6.9,6.9,84,0.00,CLR,,0.00,WeatherDisplay:10.37,2013-10-03 13:29:00,
2013-10-03 09:34:00,73.6,67.8,30.14,NNW,338,6.5,6.5,82,0.00,CLR,,0.00,WeatherDisplay:10.37,2013-10-03 13:34:00,
2013-10-03 09:39:00,74.1,67.9,30.15,NW,315,6.9,6.9,81,0.00,CLR,,0.00,WeatherDisplay:10.37,2013-10-03 13:39:00,
2013-10-03 09:44:00,74.8,68.2,30.15,NNW,338,6.9,6.9,80,0.00,CLR,,0.00,WeatherDisplay:10.37,2013-10-03 13:44:00,
2013-10-03 09:49:00,74.7,68.1,30.15,NW,315,6.9,6.9,80,0.00,CLR,,0.00,WeatherDisplay:10.37,2013-10-03 13:49:00,
2013-10-03 09:54:00,75.0,68.0,30.14,NNE,22,5.8,5.8,79,0.00,CLR,,0.00,WeatherDisplay:10.37,2013-10-03 13:54:00,
2013-10-03 09:59:00,75.7,68.7,30.15,SSE,158,3.5,3.5,79,0.00,CLR,,0.00,WeatherDisplay:10.37,2013-10-03 13:59:00,
2013-10-03 10:04:00,76.3,68.2,30.15,NW,315,7.4,7.4,76,0.00,CLR,,0.00,WeatherDisplay:10.37,2013-10-03 14:04:00,
2013-10-03 10:09:00,75.4,68.1,30.15,NW,315,4.6,4.6,78,0.00,CLR,,0.00,WeatherDisplay:10.37,2013-10-03 14:09:00,
2013-10-03 10:14:00,76.3,68.2,30.16,WNW,292,5.6,5.6,76,0.00,CLR,,0.00,WeatherDisplay:10.37,2013-10-03 14:14:00,
2013-10-03 10:19:00,76.5,68.4,30.16,SW,225,6.9,6.9,76,0.00,CLR,,0.00,WeatherDisplay:10.37,2013-10-03 14:19:00,
2013-10-03 10:24:00,77.0,68.9,30.15,NE,45,4.7,4.7,76,0.00,CLR,,0.00,WeatherDisplay:10.37,2013-10-03 14:24:00,
2013-10-03 10:29:00,77.5,68.9,30.16,NNW,338,5.8,5.8,75,0.00,CLR,,0.00,WeatherDisplay:10.37,2013-10-03 14:29:00,
2013-10-03 10:34:00,77.4,68.5,30.16,ESE,112,4.6,4.6,74,0.00,CLR,,0.00,WeatherDisplay:10.37,2013-10-03 14:34:00,
2013-10-03 10:39:00,77.5,68.6,30.16,NNW,338,7.4,7.4,74,0.00,CLR,,0.00,WeatherDisplay:10.37,2013-10-03 14:39:00,
2013-10-03 10:44:00,78.2,66.3,30.16,East,90,8.1,8.1,67,0.00,CLR,,0.00,WeatherDisplay:10.37,2013-10-03 14:44:00,
2013-10-03 10:49:00,79.1,65.9,30.14,NNW,338,5.8,5.8,64,0.00,CLR,,0.00,WeatherDisplay:10.37,2013-10-03 14:49:00,
2013-10-03 10:54:00,79.2,65.5,30.16,ESE,112,5.8,5.8,63,0.00,CLR,,0.00,WeatherDisplay:10.37,2013-10-03 14:54:00,
2013-10-03 10:59:00,77.7,68.4,30.16,SW,225,4.6,4.6,73,0.00,CLR,,0.00,WeatherDisplay:10.37,2013-10-03 14:59:00,
2013-10-03 11:04:00,78.3,66.9,30.16,NW,315,8.3,8.3,68,0.00,CLR,,0.00,WeatherDisplay:10.37,2013-10-03 15:04:00,
2013-10-03 11:09:00,78.4,67.4,30.16,NNW,338,4.6,4.6,69,0.00,CLR,,0.00,WeatherDisplay:10.37,2013-10-03 15:09:00,
2013-10-03 11:14:00,78.7,65.0,30.16,SW,225,3.5,3.5,63,0.00,CLR,,0.00,WeatherDisplay:10.37,2013-10-03 15:14:00,
2013-10-03 11:19:00,79.9,68.8,30.16,WSW,248,3.5,3.5,69,0.00,CLR,,0.00,WeatherDisplay:10.37,2013-10-03 15:19:00,
2013-10-03 11:24:00,79.0,69.2,30.16,WSW,248,3.8,3.8,72,0.00,CLR,,0.00,WeatherDisplay:10.37,2013-10-03 15:24:00,
2013-10-03 11:29:00,80.1,66.4,30.16,SSW,202,2.3,2.3,63,0.00,CLR,,0.00,WeatherDisplay:10.37,2013-10-03 15:29:00,
2013-10-03 11:34:00,80.0,66.3,30.14,SSW,202,3.5,3.5,63,0.00,CLR,,0.00,WeatherDisplay:10.37,2013-10-03 15:34:00,
2013-10-03 11:39:00,80.0,66.3,30.16,SSW,202,3.5,3.5,63,0.00,CLR,,0.00,WeatherDisplay:10.37,2013-10-03 15:39:00,
2013-10-03 11:44:00,80.0,64.4,30.16,WSW,248,0.0,0.0,59,0.00,CLR,,0.00,WeatherDisplay:10.37,2013-10-03 15:44:00,
2013-10-03 11:49:00,79.7,67.8,30.16,SSE,158,3.5,3.5,67,0.00,CLR,,0.00,WeatherDisplay:10.37,2013-10-03 15:49:00,
2013-10-03 11:54:00,80.6,65.9,30.16,SSW,202,0.0,0.0,61,0.00,CLR,,0.00,WeatherDisplay:10.37,2013-10-03 15:54:00,
2013-10-03 11:59:00,80.1,64.0,30.16,SSW,202,0.0,0.0,58,0.00,CLR,,0.00,WeatherDisplay:10.37,2013-10-03 15:59:00,
2013-10-03 12:04:00,80.1,63.5,30.16,West,270,6.9,6.9,57,0.00,CLR,,0.00,WeatherDisplay:10.37,2013-10-03 16:04:00,
2013-10-03 12:09:00,80.1,63.5,30.16,South,180,3.5,3.5,57,0.00,CLR,,0.00,WeatherDisplay:10.37,2013-10-03 16:09:00,
2013-10-03 12:14:00,80.1,64.0,30.14,SSW,202,3.5,3.5,58,0.00,CLR,,0.00,WeatherDisplay:10.37,2013-10-03 16:14:00,
2013-10-03 12:19:00,80.1,62.5,30.15,SSW,202,4.6,4.6,55,0.00,CLR,,0.00,WeatherDisplay:10.37,2013-10-03 16:19:00,
2013-10-03 12:24:00,80.1,64.0,30.15,SW,225,4.6,4.6,58,0.00,CLR,,0.00,WeatherDisplay:10.37,2013-10-03 16:24:00,
2013-10-03 12:29:00,80.1,64.0,30.15,WSW,248,6.9,6.9,58,0.00,CLR,,0.00,WeatherDisplay:10.37,2013-10-03 16:29:00,
2013-10-03 12:34:00,80.1,65.0,30.15,NW,315,8.3,8.3,60,0.00,CLR,,0.00,WeatherDisplay:10.37,2013-10-03 16:34:00,
2013-10-03 12:39:00,80.1,62.5,30.13,SW,225,5.8,5.8,55,0.00,CLR,,0.00,WeatherDisplay:10.37,2013-10-03 16:39:00,
2013-10-03 12:45:00,80.1,59.8,30.13,WNW,292,3.5,3.5,50,0.00,CLR,,0.00,WeatherDisplay:10.37,2013-10-03 16:45:00,
2013-10-03 12:50:00,80.1,59.8,30.13,WSW,248,2.0,2.0,50,0.00,CLR,,0.00,WeatherDisplay:10.37,2013-10-03 16:50:00,
2013-10-03 12:55:00,80.1,62.5,30.13,West,270,4.6,4.6,55,0.00,CLR,,0.00,WeatherDisplay:10.37,2013-10-03 16:55:00,
2013-10-03 13:00:00,80.1,64.0,30.13,SSE,158,3.5,3.5,58,0.00,CLR,,0.00,WeatherDisplay:10.37,2013-10-03 17:00:00,
2013-10-03 13:05:00,80.1,63.5,30.13,SSW,202,5.8,5.8,57,0.00,CLR,,0.00,WeatherDisplay:10.37,2013-10-03 17:05:00,
2013-10-03 13:10:00,80.1,63.5,30.13,SW,225,4.6,4.6,57,0.00,CLR,,0.00,WeatherDisplay:10.37,2013-10-03 17:10:00,
2013-10-03 13:15:00,80.1,65.0,30.12,SW,225,4.6,4.6,60,0.00,CLR,,0.00,WeatherDisplay:10.37,2013-10-03 17:15:00,
2013-10-03 13:20:00,80.1,65.0,30.12,SSE,158,6.9,6.9,60,0.00,CLR,,0.00,WeatherDisplay:10.37,2013-10-03 17:20:00,
2013-10-03 13:25:00,80.1,65.0,30.13,South,180,3.5,3.5,60,0.00,CLR,,0.00,WeatherDisplay:10.37,2013-10-03 17:25:00,
2013-10-03 13:30:00,80.1,65.5,30.13,SW,225,4.6,4.6,61,0.00,CLR,,0.00,WeatherDisplay:10.37,2013-10-03 17:30:00,
2013-10-03 13:35:00,80.1,65.5,30.13,WSW,248,3.5,0.0,61,0.00,CLR,,0.00,WeatherDisplay:10.37,2013-10-03 17:35:00,
2013-10-03 13:40:00,80.1,66.4,30.13,West,270,3.5,3.5,63,0.00,CLR,,0.00,WeatherDisplay:10.37,2013-10-03 17:40:00,
2013-10-03 13:45:00,80.1,65.9,30.13,SSW,202,4.6,4.6,62,0.00,CLR,,0.00,WeatherDisplay:10.37,2013-10-03 17:45:00,
2013-10-03 13:50:00,80.1,65.9,30.13,SW,225,5.8,5.8,62,0.00,CLR,,0.00,WeatherDisplay:10.37,2013-10-03 17:50:00,
2013-10-03 13:55:00,80.1,65.9,30.13,WSW,248,4.7,4.7,62,0.00,CLR,,0.00,WeatherDisplay:10.37,2013-10-03 17:55:00,
2013-10-03 14:00:00,80.1,65.9,30.13,West,270,5.8,5.8,62,0.00,CLR,,0.00,WeatherDisplay:10.37,2013-10-03 18:00:00,
2013-10-03 14:05:00,80.1,65.9,30.11,South,180,4.7,4.7,62,0.00,CLR,,0.00,WeatherDisplay:10.37,2013-10-03 18:05:00,
2013-10-03 14:10:00,80.1,65.5,30.13,WSW,248,6.9,6.9,61,0.00,CLR,,0.00,WeatherDisplay:10.37,2013-10-03 18:10:00,
2013-10-03 14:15:00,80.1,65.9,30.12,WSW,248,6.5,6.5,62,0.00,CLR,,0.00,WeatherDisplay:10.37,2013-10-03 18:15:00,
2013-10-03 14:20:00,80.1,66.4,30.12,SW,225,6.9,6.9,63,0.00,CLR,,0.00,WeatherDisplay:10.37,2013-10-03 18:20:00,
2013-10-03 14:25:00,80.1,66.4,30.11,WSW,248,5.8,5.8,63,0.00,CLR,,0.00,WeatherDisplay:10.37,2013-10-03 18:25:00,
2013-10-03 14:30:00,80.1,66.4,30.11,SSW,202,3.8,3.8,63,0.00,CLR,,0.00,WeatherDisplay:10.37,2013-10-03 18:30:00,
2013-10-03 14:35:00,80.1,66.9,30.12,WSW,248,6.5,6.5,64,0.00,CLR,,0.00,WeatherDisplay:10.37,2013-10-03 18:35:00,
2013-10-03 14:40:00,80.1,69.0,30.11,West,270,6.9,6.9,69,0.00,CLR,,0.00,WeatherDisplay:10.37,2013-10-03 18:40:00,
2013-10-03 14:45:00,80.4,69.7,30.12,West,270,4.7,4.7,70,0.00,CLR,,0.00,WeatherDisplay:10.37,2013-10-03 18:45:00,
2013-10-03 14:50:00,80.6,69.1,30.12,ENE,68,6.9,6.9,68,0.00,CLR,,0.00,WeatherDisplay:10.37,2013-10-03 18:50:00,
2013-10-03 14:55:00,80.6,68.6,30.12,South,180,4.6,4.6,67,0.00,CLR,,0.00,WeatherDisplay:10.37,2013-10-03 18:55:00,
2013-10-03 15:00:00,80.2,69.1,30.12,SSW,202,4.7,4.7,69,0.00,CLR,,0.00,WeatherDisplay:10.37,2013-10-03 19:00:00,
2013-10-03 15:05:00,79.7,69.0,30.12,West,270,5.8,5.8,70,0.00,CLR,,0.00,WeatherDisplay:10.37,2013-10-03 19:05:00,
2013-10-03 15:10:00,79.5,68.4,30.12,SW,225,4.6,4.6,69,0.00,CLR,,0.00,WeatherDisplay:10.37,2013-10-03 19:10:00,
2013-10-03 15:15:00,80.4,68.9,30.11,WSW,248,3.5,3.5,68,0.00,CLR,,0.00,WeatherDisplay:10.37,2013-10-03 19:15:00,
2013-10-03 15:20:00,79.5,69.3,30.12,SE,135,0.0,0.0,71,0.00,CLR,,0.00,WeatherDisplay:10.37,2013-10-03 19:20:00,
2013-10-03 15:25:00,79.7,68.6,30.12,SSW,202,2.9,0.0,69,0.00,CLR,,0.00,WeatherDisplay:10.37,2013-10-03 19:25:00,
2013-10-03 15:30:00,80.1,68.6,30.12,West,270,4.7,4.7,68,0.00,CLR,,0.00,WeatherDisplay:10.37,2013-10-03 19:30:00,
2013-10-03 15:35:00,79.9,68.8,30.11,SSW,202,2.3,2.3,69,0.00,CLR,,0.00,WeatherDisplay:10.37,2013-10-03 19:35:00,
2013-10-03 15:40:00,79.2,68.1,30.11,SW,225,3.5,3.5,69,0.00,CLR,,0.00,WeatherDisplay:10.37,2013-10-03 19:40:00,
2013-10-03 15:45:00,79.3,68.7,30.12,SSW,202,6.9,6.9,70,0.00,CLR,,0.00,WeatherDisplay:10.37,2013-10-03 19:45:00,
2013-10-03 15:50:00,79.9,67.9,30.12,West,270,3.8,3.8,67,0.00,CLR,,0.00,WeatherDisplay:10.37,2013-10-03 19:50:00,
2013-10-03 15:55:00,79.9,67.5,30.12,SSE,158,2.9,2.9,66,0.00,CLR,,0.00,WeatherDisplay:10.37,2013-10-03 19:55:00,
2013-10-03 16:00:00,79.9,67.1,30.12,West,270,5.8,5.8,65,0.00,CLR,,0.00,WeatherDisplay:10.37,2013-10-03 20:00:00,
2013-10-03 16:05:00,79.9,67.5,30.12,WSW,248,3.8,3.8,66,0.00,CLR,,0.00,WeatherDisplay:10.37,2013-10-03 20:05:00,
2013-10-03 16:10:00,79.9,67.5,30.12,SSE,158,0.0,0.0,66,0.00,CLR,,0.00,WeatherDisplay:10.37,2013-10-03 20:10:00,
2013-10-03 16:15:00,81.3,68.9,30.12,SSE,158,3.5,3.5,66,0.00,CLR,,0.00,WeatherDisplay:10.37,2013-10-03 20:15:00,
2013-10-03 16:20:00,80.4,68.9,30.10,West,270,0.0,0.0,68,0.00,CLR,,0.00,WeatherDisplay:10.37,2013-10-03 20:20:00,
2013-10-03 16:25:00,80.4,68.4,30.10,WNW,292,0.0,0.0,67,0.00,CLR,,0.00,WeatherDisplay:10.37,2013-10-03 20:25:00,
2013-10-03 16:30:00,80.2,68.2,30.11,WSW,248,0.0,0.0,67,0.00,CLR,,0.00,WeatherDisplay:10.37,2013-10-03 20:30:00,
2013-10-03 16:35:00,79.7,67.8,30.11,SSW,202,0.0,0.0,67,0.00,CLR,,0.00,WeatherDisplay:10.37,2013-10-03 20:35:00,
2013-10-03 16:40:00,79.5,67.6,30.11,WSW,248,3.8,3.8,67,0.00,CLR,,0.00,WeatherDisplay:10.37,2013-10-03 20:40:00,
2013-10-03 16:45:00,79.5,67.6,30.11,West,270,3.5,3.5,67,0.00,CLR,,0.00,WeatherDisplay:10.37,2013-10-03 20:45:00,
2013-10-03 16:50:00,79.2,67.7,30.11,South,180,3.5,3.5,68,0.00,CLR,,0.00,WeatherDisplay:10.37,2013-10-03 20:50:00,
2013-10-03 16:55:00,78.8,67.3,30.11,SSW,202,4.6,4.6,68,0.00,CLR,,0.00,WeatherDisplay:10.37,2013-10-03 20:55:00,
2013-10-03 17:00:00,78.8,67.8,30.11,SW,225,0.0,0.0,69,0.00,CLR,,0.00,WeatherDisplay:10.37,2013-10-03 21:00:00,
2013-10-03 17:05:00,78.4,67.8,30.10,WSW,248,0.0,0.0,70,0.00,CLR,,0.00,WeatherDisplay:10.37,2013-10-03 21:05:00,
2013-10-03 17:10:00,78.3,68.1,30.10,WSW,248,3.5,3.5,71,0.00,CLR,,0.00,WeatherDisplay:10.37,2013-10-03 21:10:00,
2013-10-03 17:15:00,78.1,68.3,30.10,West,270,3.5,3.5,72,0.00,CLR,,0.00,WeatherDisplay:10.37,2013-10-03 21:15:00,
2013-10-03 17:20:00,77.7,68.0,30.10,West,270,3.5,3.5,72,0.00,CLR,,0.00,WeatherDisplay:10.37,2013-10-03 21:20:00,
2013-10-03 17:25:00,77.7,68.7,30.10,West,270,0.0,0.0,74,0.00,CLR,,0.00,WeatherDisplay:10.37,2013-10-03 21:25:00,
2013-10-03 17:30:00,77.5,68.2,30.11,SSW,202,0.0,0.0,73,0.00,CLR,,0.00,WeatherDisplay:10.37,2013-10-03 21:30:00,
2013-10-03 17:35:00,77.5,68.2,30.10,WSW,248,0.0,0.0,73,0.00,CLR,,0.00,WeatherDisplay:10.37,2013-10-03 21:35:00,
2013-10-03 17:40:00,77.2,68.3,30.10,West,270,0.0,0.0,74,0.00,CLR,,0.00,WeatherDisplay:10.37,2013-10-03 21:40:00,
2013-10-03 17:45:00,77.0,68.1,30.10,SSW,202,0.0,0.9,74,0.00,CLR,,0.00,WeatherDisplay:10.37,2013-10-03 21:45:00,
2013-10-03 17:51:00,76.8,68.3,30.10,WSW,248,0.0,0.0,75,0.00,CLR,,0.00,WeatherDisplay:10.37,2013-10-03 21:51:00,
2013-10-03 17:56:00,76.8,68.3,30.10,WSW,248,0.0,0.0,75,0.00,CLR,,0.00,WeatherDisplay:10.37,2013-10-03 21:56:00,
2013-10-03 18:01:00,76.5,68.0,30.10,WSW,248,0.0,0.0,75,0.00,CLR,,0.00,WeatherDisplay:10.37,2013-10-03 22:01:00,
2013-10-03 18:06:00,76.1,68.0,30.10,WSW,248,0.0,0.0,76,0.00,CLR,,0.00,WeatherDisplay:10.37,2013-10-03 22:06:00,
2013-10-03 18:11:00,75.7,68.4,30.10,WSW,248,0.0,0.0,78,0.00,CLR,,0.00,WeatherDisplay:10.37,2013-10-03 22:11:00,
2013-10-03 18:16:00,75.6,67.9,30.10,SW,225,0.0,0.0,77,0.00,CLR,,0.00,WeatherDisplay:10.37,2013-10-03 22:16:00,
2013-10-03 18:21:00,75.4,68.1,30.10,West,270,0.0,0.0,78,0.00,CLR,,0.00,WeatherDisplay:10.37,2013-10-03 22:21:00,
2013-10-03 18:26:00,75.4,68.1,30.11,WNW,292,0.0,0.0,78,0.00,CLR,,0.00,WeatherDisplay:10.37,2013-10-03 22:26:00,
2013-10-03 18:31:00,75.0,68.4,30.11,WNW,292,0.0,0.0,80,0.00,CLR,,0.00,WeatherDisplay:10.37,2013-10-03 22:31:00,
2013-10-03 18:36:00,74.7,68.1,30.11,SE,135,0.0,0.0,80,0.00,CLR,,0.00,WeatherDisplay:10.37,2013-10-03 22:36:00,
2013-10-03 18:41:00,74.3,68.1,30.11,SE,135,0.0,0.0,81,0.00,CLR,,0.00,WeatherDisplay:10.37,2013-10-03 22:41:00,
2013-10-03 18:46:00,74.1,68.3,30.11,SE,135,0.0,0.0,82,0.00,CLR,,0.00,WeatherDisplay:10.37,2013-10-03 22:46:00,
2013-10-03 18:51:00,73.8,68.3,30.11,SE,135,0.0,0.0,83,0.00,CLR,,0.00,WeatherDisplay:10.37,2013-10-03 22:51:00,
2013-10-03 18:56:00,73.2,67.7,30.11,SE,135,0.0,0.0,83,0.00,CLR,,0.00,WeatherDisplay:10.37,2013-10-03 22:56:00,
2013-10-03 19:01:00,72.9,67.8,30.11,West,270,0.0,0.0,84,0.00,CLR,,0.00,WeatherDisplay:10.37,2013-10-03 23:01:00,
2013-10-03 19:06:00,72.7,67.6,30.11,West,270,0.0,0.0,84,0.00,CLR,,0.00,WeatherDisplay:10.37,2013-10-03 23:06:00,
2013-10-03 19:11:00,72.3,67.9,30.11,NNE,22,0.0,0.0,86,0.00,CLR,,0.00,WeatherDisplay:10.37,2013-10-03 23:11:00,
2013-10-03 19:16:00,72.0,67.6,30.11,NNE,22,0.0,0.0,86,0.00,CLR,,0.00,WeatherDisplay:10.37,2013-10-03 23:16:00,
2013-10-03 19:21:00,71.8,67.7,30.12,NNE,22,0.0,0.0,87,0.00,CLR,,0.00,WeatherDisplay:10.37,2013-10-03 23:21:00,
2013-10-03 19:26:00,71.4,67.3,30.12,NNE,22,0.0,0.0,87,0.00,CLR,,0.00,WeatherDisplay:10.37,2013-10-03 23:26:00,
2013-10-03 19:31:00,71.2,67.5,30.12,NNE,22,0.0,0.0,88,0.00,CLR,,0.00,WeatherDisplay:10.37,2013-10-03 23:31:00,
2013-10-03 19:36:00,71.1,68.0,30.12,East,90,0.0,0.0,90,0.00,CLR,,0.00,WeatherDisplay:10.37,2013-10-03 23:36:00,
2013-10-03 19:41:00,70.9,67.8,30.12,ENE,68,0.0,0.0,90,0.00,CLR,,0.00,WeatherDisplay:10.37,2013-10-03 23:41:00,
2013-10-03 19:46:00,70.7,67.3,30.12,ENE,68,0.0,0.0,89,0.00,CLR,,0.00,WeatherDisplay:10.37,2013-10-03 23:46:00,
2013-10-03 19:51:00,70.5,67.4,30.12,East,90,0.0,0.0,90,0.00,CLR,,0.00,WeatherDisplay:10.37,2013-10-03 23:51:00,
2013-10-03 19:56:00,70.3,67.2,30.12,East,90,0.0,0.0,90,0.00,CLR,,0.00,WeatherDisplay:10.37,2013-10-03 23:56:00,
2013-10-03 20:01:00,70.2,67.4,30.12,ENE,68,0.0,0.0,91,0.00,CLR,,0.00,WeatherDisplay:10.37,2013-10-04 00:01:00,
2013-10-03 20:06:00,70.0,67.3,30.12,NE,45,0.0,0.0,91,0.00,CLR,,0.00,WeatherDisplay:10.37,2013-10-04 00:06:00,
2013-10-03 20:11:00,69.6,66.9,30.12,NE,45,0.0,0.0,91,0.00,CLR,,0.00,WeatherDisplay:10.37,2013-10-04 00:11:00,
2013-10-03 20:16:00,69.6,67.2,30.12,ENE,68,0.0,0.0,92,0.00,CLR,,0.00,WeatherDisplay:10.37,2013-10-04 00:16:00,
2013-10-03 20:21:00,69.4,67.0,30.12,ENE,68,0.0,0.0,92,0.00,CLR,,0.00,WeatherDisplay:10.37,2013-10-04 00:21:00,
2013-10-03 20:26:00,69.3,67.2,30.12,East,90,0.0,0.0,93,0.00,CLR,,0.00,WeatherDisplay:10.37,2013-10-04 00:26:00,
2013-10-03 20:31:00,69.1,67.0,30.12,East,90,0.0,0.0,93,0.00,CLR,,0.00,WeatherDisplay:10.37,2013-10-04 00:31:00,
2013-10-03 20:37:00,68.9,66.8,30.12,East,90,0.0,0.0,93,0.00,CLR,,0.00,WeatherDisplay:10.37,2013-10-04 00:37:00,
2013-10-03 20:42:00,68.9,66.8,30.12,East,90,0.0,0.0,93,0.00,CLR,,0.00,WeatherDisplay:10.37,2013-10-04 00:42:00,
2013-10-03 20:47:00,68.7,66.6,30.12,East,90,0.0,0.0,93,0.00,CLR,,0.00,WeatherDisplay:10.37,2013-10-04 00:47:00,
2013-10-03 20:52:00,68.5,66.1,30.12,East,90,0.0,0.0,92,0.00,CLR,,0.00,WeatherDisplay:10.37,2013-10-04 00:52:00,
2013-10-03 20:57:00,68.5,66.4,30.12,East,90,0.0,0.0,93,0.00,CLR,,0.00,WeatherDisplay:10.37,2013-10-04 00:57:00,
2013-10-03 21:02:00,68.4,66.6,30.12,East,90,0.0,0.0,94,0.00,CLR,,0.00,WeatherDisplay:10.37,2013-10-04 01:02:00,
2013-10-03 21:07:00,68.4,66.6,30.12,East,90,0.0,0.0,94,0.00,CLR,,0.00,WeatherDisplay:10.37,2013-10-04 01:07:00,
2013-10-03 21:12:00,68.2,66.4,30.12,East,90,0.0,0.0,94,0.00,CLR,,0.00,WeatherDisplay:10.37,2013-10-04 01:12:00,
2013-10-03 21:17:00,68.0,66.2,30.13,East,90,0.0,0.0,94,0.00,CLR,,0.00,WeatherDisplay:10.37,2013-10-04 01:17:00,
2013-10-03 21:22:00,68.0,66.2,30.13,East,90,0.0,0.0,94,0.00,CLR,,0.00,WeatherDisplay:10.37,2013-10-04 01:22:00,
2013-10-03 21:27:00,67.8,66.3,30.13,East,90,0.0,0.0,95,0.00,CLR,,0.00,WeatherDisplay:10.37,2013-10-04 01:27:00,
2013-10-03 21:32:00,67.8,66.3,30.13,East,90,0.0,0.0,95,0.00,CLR,,0.00,WeatherDisplay:10.37,2013-10-04 01:32:00,
2013-10-03 21:37:00,67.6,66.1,30.13,East,90,0.0,0.0,95,0.00,CLR,,0.00,WeatherDisplay:10.37,2013-10-04 01:37:00,
2013-10-03 21:42:00,67.5,66.0,30.13,East,90,0.0,0.0,95,0.00,CLR,,0.00,WeatherDisplay:10.37,2013-10-04 01:42:00,
2013-10-03 21:47:00,67.5,66.0,30.13,East,90,0.0,0.0,95,0.00,CLR,,0.00,WeatherDisplay:10.37,2013-10-04 01:47:00,
2013-10-03 21:52:00,67.3,65.8,30.13,East,90,0.0,0.0,95,0.00,CLR,,0.00,WeatherDisplay:10.37,2013-10-04 01:52:00,
2013-10-03 21:57:00,67.1,65.6,30.13,East,90,0.0,0.0,95,0.00,CLR,,0.00,WeatherDisplay:10.37,2013-10-04 01:57:00,
2013-10-03 22:02:00,67.1,65.6,30.13,East,90,0.0,0.0,95,0.00,CLR,,0.00,WeatherDisplay:10.37,2013-10-04 02:02:00,
2013-10-03 22:07:00,67.1,65.6,30.13,East,90,0.0,0.0,95,0.00,CLR,,0.00,WeatherDisplay:10.37,2013-10-04 02:07:00,
2013-10-03 22:12:00,66.9,65.4,30.13,East,90,0.0,0.0,95,0.00,CLR,,0.00,WeatherDisplay:10.37,2013-10-04 02:12:00,
2013-10-03 22:17:00,66.9,65.4,30.13,East,90,0.0,0.0,95,0.00,CLR,,0.00,WeatherDisplay:10.37,2013-10-04 02:17:00,
2013-10-03 22:22:00,66.9,65.7,30.13,NW,315,0.0,0.0,96,0.00,CLR,,0.00,WeatherDisplay:10.37,2013-10-04 02:22:00,
2013-10-03 22:27:00,66.9,65.7,30.13,NW,315,0.0,0.0,96,0.00,CLR,,0.00,WeatherDisplay:10.37,2013-10-04 02:27:00,
2013-10-03 22:32:00,66.7,65.5,30.13,NW,315,0.0,0.0,96,0.00,CLR,,0.00,WeatherDisplay:10.37,2013-10-04 02:32:00,
2013-10-03 22:37:00,66.6,65.4,30.13,NW,315,0.0,0.0,96,0.00,CLR,,0.00,WeatherDisplay:10.37,2013-10-04 02:37:00,
2013-10-03 22:42:00,66.6,65.4,30.13,NW,315,0.0,0.0,96,0.00,CLR,,0.00,WeatherDisplay:10.37,2013-10-04 02:42:00,
2013-10-03 22:47:00,66.6,65.4,30.13,NW,315,0.0,0.0,96,0.00,CLR,,0.00,WeatherDisplay:10.37,2013-10-04 02:47:00,
2013-10-03 22:52:00,66.4,65.2,30.13,NW,315,0.0,0.0,96,0.00,CLR,,0.00,WeatherDisplay:10.37,2013-10-04 02:52:00,
2013-10-03 22:57:00,66.4,65.2,30.13,NW,315,0.0,0.0,96,0.00,CLR,,0.00,WeatherDisplay:10.37,2013-10-04 02:57:00,
2013-10-03 23:02:00,66.2,65.0,30.13,NW,315,0.0,0.0,96,0.00,CLR,,0.00,WeatherDisplay:10.37,2013-10-04 03:02:00,
2013-10-03 23:07:00,66.2,65.0,30.13,NW,315,0.0,0.0,96,0.00,CLR,,0.00,WeatherDisplay:10.37,2013-10-04 03:07:00,
2013-10-03 23:12:00,66.0,64.8,30.14,NW,315,0.0,0.0,96,0.00,CLR,,0.00,WeatherDisplay:10.37,2013-10-04 03:12:00,
2013-10-03 23:17:00,66.0,64.8,30.14,NW,315,0.0,0.0,96,0.00,CLR,,0.00,WeatherDisplay:10.37,2013-10-04 03:17:00,
2013-10-03 23:22:00,66.0,64.8,30.14,NW,315,0.0,0.0,96,0.00,CLR,,0.00,WeatherDisplay:10.37,2013-10-04 03:22:00,
2013-10-03 23:27:00,66.0,64.8,30.14,NW,315,0.0,0.0,96,0.00,CLR,,0.00,WeatherDisplay:10.37,2013-10-04 03:27:00,
2013-10-03 23:32:00,65.8,64.6,30.13,NW,315,0.0,0.0,96,0.00,CLR,,0.00,WeatherDisplay:10.37,2013-10-04 03:32:00,
2013-10-03 23:37:00,65.8,64.6,30.13,NW,315,0.0,0.0,96,0.00,CLR,,0.00,WeatherDisplay:10.37,2013-10-04 03:37:00,
2013-10-03 23:42:00,65.8,64.6,30.14,NW,315,0.0,0.0,96,0.00,CLR,,0.00,WeatherDisplay:10.37,2013-10-04 03:42:00,
2013-10-03 23:47:00,65.7,64.5,30.14,NW,315,0.0,0.0,96,0.00,CLR,,0.00,WeatherDisplay:10.37,2013-10-04 03:47:00,
2013-10-03 23:52:00,65.7,64.5,30.14,NW,315,0.0,0.0,96,0.00,CLR,,0.00,WeatherDisplay:10.37,2013-10-04 03:52:00,
2013-10-03 23:57:00,65.7,64.8,30.14,East,90,0.0,0.0,97,0.00,CLR,,0.00,WeatherDisplay:10.37,2013-10-04 03:57:00,